Time;durP1;ratioP1;P1;durP2;ratioP2;P2;SDS_P1;SDS_P2;PMS_P1;PMS_P2;Temp;Humidity;BMP_temperature;BMP_pressure;BME280_temperature;BME280_humidity;BME280_pressure;Samples;Min_cycle;Max_cycle;Signal;HPM_P1;HPM_P2
2022/03/21 00:00:53;;;;;;;133.77;63.17;;;;;;;;;;5096405;28;20111;-65
2022/03/21 00:03:21;;;;;;;142.53;64.47;;;;;;;;;;5078033;28;20515;-65
2022/03/21 00:05:47;;;;;;;157.53;69.77;;;;;;;;;;5095964;28;20468;-65
2022/03/21 00:08:17;;;;;;;162.30;69.73;;;;;;;;;;5096207;28;20024;-65
2022/03/21 00:10:43;;;;;;;151.50;69.10;;;;;;;;;;5096203;28;20444;-65
2022/03/21 00:13:10;;;;;;;152.77;67.50;;;;;;;;;;5077858;28;20487;-65
2022/03/21 00:15:36;;;;;;;143.10;62.80;;;;;;;;;;5095808;28;20525;-65
2022/03/21 00:18:03;;;;;;;140.40;60.57;;;;;;;;;;5096043;28;20388;-65
2022/03/21 00:20:30;;;;;;;131.20;59.90;;;;;;;;;;5077908;28;20020;-66
2022/03/21 00:22:57;;;;;;;134.07;60.03;;;;;;;;;;5077666;28;20027;-65
2022/03/21 00:25:23;;;;;;;135.70;57.57;;;;;;;;;;5095884;28;20040;-65
2022/03/21 00:27:50;;;;;;;137.87;60.73;;;;;;;;;;5077608;28;20027;-65
2022/03/21 00:30:16;;;;;;;144.03;62.40;;;;;;;;;;5077509;28;20024;-65
2022/03/21 00:32:43;;;;;;;138.00;59.70;;;;;;;;;;5077537;28;20578;-65
2022/03/21 00:35:10;;;;;;;135.57;60.27;;;;;;;;;;5095731;28;20035;-66
2022/03/21 00:37:37;;;;;;;139.00;57.40;;;;;;;;;;5095646;28;20025;-66
2022/03/21 00:40:05;;;;;;;135.87;57.90;;;;;;;;;;5095622;28;20021;-65
2022/03/21 00:42:34;;;;;;;146.63;64.43;;;;;;;;;;5077021;28;20035;-66
2022/03/21 00:45:00;;;;;;;145.40;63.83;;;;;;;;;;5077374;28;20032;-65
2022/03/21 00:47:27;;;;;;;141.57;61.97;;;;;;;;;;5094569;28;20452;-66
2022/03/21 00:49:53;;;;;;;143.73;59.53;;;;;;;;;;5094804;28;20044;-66
2022/03/21 00:52:20;;;;;;;144.83;55.43;;;;;;;;;;5095452;28;20032;-65
2022/03/21 00:54:46;;;;;;;141.07;61.00;;;;;;;;;;5095330;28;20016;-65
2022/03/21 00:57:12;;;;;;;109.80;47.63;;;;;;;;;;5094970;28;20384;-66
2022/03/21 00:59:39;;;;;;;104.93;48.63;;;;;;;;;;5095509;28;20065;-65
2022/03/21 01:02:08;;;;;;;116.03;51.47;;;;;;;;;;5095218;28;20028;-66
2022/03/21 01:04:36;;;;;;;121.10;50.80;;;;;;;;;;5094889;28;20528;-64
2022/03/21 01:07:02;;;;;;;124.07;53.50;;;;;;;;;;5095168;28;20361;-64
2022/03/21 01:09:28;;;;;;;119.53;53.13;;;;;;;;;;5095336;28;20475;-64
2022/03/21 01:11:54;;;;;;;115.27;53.37;;;;;;;;;;5076550;28;20124;-64
2022/03/21 01:14:20;;;;;;;124.87;53.67;;;;;;;;;;5095007;28;20059;-64
2022/03/21 01:16:47;;;;;;;118.13;53.20;;;;;;;;;;5094973;28;20020;-65
2022/03/21 01:19:13;;;;;;;123.67;55.90;;;;;;;;;;5094877;28;20103;-64
2022/03/21 01:21:39;;;;;;;128.97;52.93;;;;;;;;;;5094848;28;20031;-64
2022/03/21 01:24:06;;;;;;;125.17;54.50;;;;;;;;;;5094994;28;20028;-63
2022/03/21 01:26:32;;;;;;;128.10;53.50;;;;;;;;;;5094743;28;20058;-66
2022/03/21 01:28:58;;;;;;;135.97;56.90;;;;;;;;;;5076552;28;20067;-65
2022/03/21 01:31:24;;;;;;;129.90;58.13;;;;;;;;;;5094663;28;20069;-65
2022/03/21 01:33:53;;;;;;;132.30;54.83;;;;;;;;;;5094602;28;20081;-65
2022/03/21 01:36:20;;;;;;;134.10;53.00;;;;;;;;;;5094560;28;20359;-64
2022/03/21 01:38:46;;;;;;;128.63;56.23;;;;;;;;;;5094482;28;20024;-65
2022/03/21 01:41:12;;;;;;;120.10;50.13;;;;;;;;;;5094678;28;20043;-65
2022/03/21 01:43:57;;;;;;;110.33;49.47;;;;;;;;;;5075813;28;20052;-65
2022/03/21 01:46:24;;;;;;;119.70;50.53;;;;;;;;;;5076100;28;20115;-65
2022/03/21 01:48:50;;;;;;;115.93;52.33;;;;;;;;;;5094272;28;20034;-65
2022/03/21 01:51:17;;;;;;;114.87;50.43;;;;;;;;;;5094254;28;20082;-65
2022/03/21 01:56:28;;;;;;;115.07;49.87;;;;;;;;;;5094249;28;20161;-65
2022/03/21 01:58:54;;;;;;;107.10;47.03;;;;;;;;;;5075804;28;20049;-65
2022/03/21 02:01:21;;;;;;;104.50;47.93;;;;;;;;;;5094049;28;20024;-65
2022/03/21 02:03:47;;;;;;;107.33;47.77;;;;;;;;;;5094034;28;20452;-66
2022/03/21 02:06:13;;;;;;;88.70;43.13;;;;;;;;;;5075800;28;20021;-65
2022/03/21 02:08:39;;;;;;;93.97;41.37;;;;;;;;;;5075686;28;20028;-65
2022/03/21 02:11:06;;;;;;;97.67;44.63;;;;;;;;;;5075638;28;20024;-65
2022/03/21 02:13:35;;;;;;;98.37;41.57;;;;;;;;;;5093857;28;20040;-65
2022/03/21 02:16:01;;;;;;;93.37;41.33;;;;;;;;;;5093844;28;20081;-66
2022/03/21 02:18:29;;;;;;;103.80;45.10;;;;;;;;;;5093737;28;20027;-67
2022/03/21 02:20:55;;;;;;;99.07;43.50;;;;;;;;;;5093720;28;20035;-64
2022/03/21 02:23:34;;;;;;;85.80;39.00;;;;;;;;;;5093656;28;20118;-66
2022/03/21 02:26:01;;;;;;;96.00;41.67;;;;;;;;;;5093685;28;20024;-66
2022/03/21 02:28:27;;;;;;;82.93;40.67;;;;;;;;;;5093324;28;20077;-66
2022/03/21 02:30:54;;;;;;;77.87;37.07;;;;;;;;;;5093537;28;20067;-63
2022/03/21 02:33:21;;;;;;;74.40;36.53;;;;;;;;;;5093595;28;20028;-66
2022/03/21 02:35:48;;;;;;;78.13;35.67;;;;;;;;;;5093500;28;20059;-63
2022/03/21 02:38:16;;;;;;;84.17;39.00;;;;;;;;;;5075246;28;20048;-65
2022/03/21 02:40:42;;;;;;;84.67;37.30;;;;;;;;;;5075351;28;20036;-65
2022/03/21 02:43:09;;;;;;;93.10;38.73;;;;;;;;;;5093006;28;20515;-65
2022/03/21 02:45:35;;;;;;;74.93;35.73;;;;;;;;;;5093419;28;20032;-66
2022/03/21 02:48:01;;;;;;;81.00;37.77;;;;;;;;;;5093294;28;20024;-65
2022/03/21 02:50:41;;;;;;;84.03;37.20;;;;;;;;;;5093318;28;20034;-65
2022/03/21 02:53:09;;;;;;;83.20;38.27;;;;;;;;;;5093252;28;20490;-65
2022/03/21 02:55:35;;;;;;;75.73;36.23;;;;;;;;;;5093261;28;20487;-66
2022/03/21 02:58:02;;;;;;;75.17;36.93;;;;;;;;;;5092926;28;20035;-65
2022/03/21 03:00:29;;;;;;;76.97;36.13;;;;;;;;;;5074933;28;20028;-65
2022/03/21 03:02:55;;;;;;;80.00;36.67;;;;;;;;;;5093167;28;20028;-65
2022/03/21 03:05:21;;;;;;;75.70;36.53;;;;;;;;;;5075009;28;20038;-65
2022/03/21 03:07:47;;;;;;;82.20;36.97;;;;;;;;;;5093404;28;20031;-66
2022/03/21 03:10:14;;;;;;;78.83;36.13;;;;;;;;;;5093097;28;20051;-65
2022/03/21 03:12:40;;;;;;;68.60;33.90;;;;;;;;;;5097347;28;20024;-65
2022/03/21 03:15:07;;;;;;;82.30;36.63;;;;;;;;;;5079105;28;20024;-65
2022/03/21 03:17:33;;;;;;;70.17;35.07;;;;;;;;;;5079034;28;20024;-65
2022/03/21 03:19:59;;;;;;;75.60;34.87;;;;;;;;;;5096908;28;20038;-65
2022/03/21 03:22:26;;;;;;;73.03;35.00;;;;;;;;;;5097096;28;20096;-65
2022/03/21 03:24:53;;;;;;;75.80;37.00;;;;;;;;;;5097084;28;20032;-65
2022/03/21 03:27:19;;;;;;;76.17;34.23;;;;;;;;;;5097034;28;20028;-64
2022/03/21 03:29:45;;;;;;;73.00;35.93;;;;;;;;;;5097028;28;20054;-64
2022/03/21 03:32:11;;;;;;;70.97;34.87;;;;;;;;;;5096984;28;20031;-65
2022/03/21 03:34:37;;;;;;;78.57;35.47;;;;;;;;;;5097152;28;20025;-65
2022/03/21 03:37:04;;;;;;;71.07;35.60;;;;;;;;;;5096847;28;20020;-65
2022/03/21 03:39:30;;;;;;;71.70;34.70;;;;;;;;;;5096754;28;20028;-65
2022/03/21 03:41:56;;;;;;;71.40;35.23;;;;;;;;;;5096758;28;20036;-65
2022/03/21 03:44:25;;;;;;;69.03;34.23;;;;;;;;;;5074896;28;20052;-65
2022/03/21 03:46:51;;;;;;;73.20;35.47;;;;;;;;;;5076436;28;20380;-65
2022/03/21 03:49:18;;;;;;;75.53;35.43;;;;;;;;;;5076259;28;20115;-65
2022/03/21 03:51:44;;;;;;;80.53;34.80;;;;;;;;;;5076280;28;20032;-65
2022/03/21 03:54:10;;;;;;;86.33;39.17;;;;;;;;;;5076265;28;20028;-65
2022/03/21 03:56:36;;;;;;;132.97;69.27;;;;;;;;;;5076447;28;20031;-65
2022/03/21 03:59:02;;;;;;;131.00;66.37;;;;;;;;;;5075885;28;20120;-65
2022/03/21 04:01:28;;;;;;;141.90;73.73;;;;;;;;;;5076001;28;20028;-67
2022/03/21 04:03:56;;;;;;;120.63;61.90;;;;;;;;;;5076043;28;20103;-66
2022/03/21 04:06:24;;;;;;;283.60;172.87;;;;;;;;;;5076263;28;20453;-67
2022/03/21 04:08:51;;;;;;;253.27;149.87;;;;;;;;;;5074699;28;20028;-66
2022/03/21 04:11:18;;;;;;;240.23;144.30;;;;;;;;;;5075929;28;20104;-65
2022/03/21 04:13:44;;;;;;;202.03;120.30;;;;;;;;;;5075917;28;20032;-66
2022/03/21 04:16:11;;;;;;;153.40;82.17;;;;;;;;;;5074561;28;20031;-64
2022/03/21 04:18:38;;;;;;;121.20;62.27;;;;;;;;;;5075495;28;20534;-63
2022/03/21 04:21:05;;;;;;;117.33;57.93;;;;;;;;;;5074546;28;20029;-64
2022/03/21 04:23:31;;;;;;;105.53;51.23;;;;;;;;;;5073074;28;20458;-65
2022/03/21 04:25:58;;;;;;;85.30;40.43;;;;;;;;;;5074386;28;20025;-65
2022/03/21 04:28:24;;;;;;;90.97;41.00;;;;;;;;;;5075626;28;20013;-65
2022/03/21 04:30:50;;;;;;;89.80;42.67;;;;;;;;;;5074213;28;20035;-65
2022/03/21 04:33:17;;;;;;;88.80;44.90;;;;;;;;;;5075899;28;20032;-65
2022/03/21 04:35:43;;;;;;;87.90;42.13;;;;;;;;;;5075241;28;20407;-65
2022/03/21 04:38:14;;;;;;;85.30;41.10;;;;;;;;;;5075457;28;20016;-65
2022/03/21 04:40:44;;;;;;;94.20;41.20;;;;;;;;;;5075421;28;20522;-66
2022/03/21 04:43:11;;;;;;;95.90;43.60;;;;;;;;;;5080514;28;20159;-66
2022/03/21 04:45:38;;;;;;;217.87;90.20;;;;;;;;;;5095568;28;20132;-66
2022/03/21 04:48:04;;;;;;;183.47;72.60;;;;;;;;;;5095527;28;20024;-66
2022/03/21 04:50:31;;;;;;;126.50;52.47;;;;;;;;;;5095177;28;20119;-66
2022/03/21 04:52:57;;;;;;;134.20;56.03;;;;;;;;;;5095450;28;20043;-66
2022/03/21 04:55:24;;;;;;;140.57;58.70;;;;;;;;;;5076866;28;20028;-66
2022/03/21 04:57:50;;;;;;;112.90;51.47;;;;;;;;;;5095307;28;20028;-66
2022/03/21 05:00:17;;;;;;;158.03;56.47;;;;;;;;;;5095281;28;20080;-66
2022/03/21 05:02:43;;;;;;;134.53;47.47;;;;;;;;;;5094870;28;20394;-67
2022/03/21 05:05:10;;;;;;;97.70;45.20;;;;;;;;;;5095194;28;20035;-66
2022/03/21 05:07:45;;;;;;;110.03;44.10;;;;;;;;;;5095061;28;20081;-66
2022/03/21 05:10:12;;;;;;;83.13;39.23;;;;;;;;;;5076856;28;20024;-66
2022/03/21 05:12:38;;;;;;;87.20;37.80;;;;;;;;;;5095057;28;20032;-66
2022/03/21 05:15:06;;;;;;;133.63;59.57;;;;;;;;;;5094965;28;20031;-65
2022/03/21 05:17:33;;;;;;;119.13;56.63;;;;;;;;;;5094888;28;20199;-65
2022/03/21 05:20:00;;;;;;;105.60;47.60;;;;;;;;;;5094884;28;20552;-65
2022/03/21 05:22:26;;;;;;;89.00;44.37;;;;;;;;;;5094378;28;20388;-66
2022/03/21 05:36:11;;;;;;;97.97;45.83;;;;;;;;;;5094662;28;20031;-66
2022/03/21 05:38:37;;;;;;;116.07;49.17;;;;;;;;;;5076528;28;20372;-66
2022/03/21 05:41:03;;;;;;;116.47;53.70;;;;;;;;;;5094433;28;20046;-66
2022/03/21 05:43:31;;;;;;;117.33;53.13;;;;;;;;;;5094089;28;20704;-66
2022/03/21 05:46:00;;;;;;;127.80;54.03;;;;;;;;;;5094365;28;20032;-65
2022/03/21 05:51:12;;;;;;;117.10;52.80;;;;;;;;;;5094006;28;20395;-65
2022/03/21 05:53:38;;;;;;;108.37;49.37;;;;;;;;;;5093867;28;20025;-67
2022/03/21 05:56:05;;;;;;;106.83;47.17;;;;;;;;;;5075865;28;20115;-70
2022/03/21 05:58:31;;;;;;;107.63;47.77;;;;;;;;;;5093766;28;20115;-69
2022/03/21 06:00:57;;;;;;;103.10;47.30;;;;;;;;;;5094058;28;20032;-70
2022/03/21 06:03:27;;;;;;;98.43;45.13;;;;;;;;;;5094027;28;20043;-65
2022/03/21 06:05:55;;;;;;;103.27;45.60;;;;;;;;;;5093985;28;20074;-67
2022/03/21 06:08:22;;;;;;;94.90;45.07;;;;;;;;;;5093815;28;20080;-68
2022/03/21 06:10:48;;;;;;;87.07;39.10;;;;;;;;;;5075537;28;20024;-68
2022/03/21 06:13:15;;;;;;;68.47;34.47;;;;;;;;;;5093845;28;20024;-67
2022/03/21 06:15:42;;;;;;;68.33;31.80;;;;;;;;;;5093631;28;20419;-66
2022/03/21 06:18:12;;;;;;;73.27;35.03;;;;;;;;;;5093600;28;20043;-66
2022/03/21 06:20:39;;;;;;;81.57;37.83;;;;;;;;;;5093691;28;20074;-65
2022/03/21 06:23:06;;;;;;;79.13;35.87;;;;;;;;;;5093271;28;20452;-65
2022/03/21 06:25:32;;;;;;;82.27;36.43;;;;;;;;;;5075368;28;20036;-65
2022/03/21 06:27:59;;;;;;;76.47;35.27;;;;;;;;;;5093589;28;20086;-65
2022/03/21 06:30:25;;;;;;;72.93;33.10;;;;;;;;;;5093505;28;20020;-66
2022/03/21 06:32:53;;;;;;;65.90;31.43;;;;;;;;;;5093104;28;20055;-66
2022/03/21 06:35:20;;;;;;;61.83;29.27;;;;;;;;;;5092976;28;20081;-66
2022/03/21 06:37:46;;;;;;;63.67;30.07;;;;;;;;;;5092673;28;20020;-66
2022/03/21 06:40:12;;;;;;;63.80;30.77;;;;;;;;;;5074363;28;20107;-66
2022/03/21 06:42:38;;;;;;;62.97;30.73;;;;;;;;;;5092513;28;20031;-66
2022/03/21 06:45:05;;;;;;;56.83;27.77;;;;;;;;;;5092699;28;20088;-66
2022/03/21 06:47:31;;;;;;;60.80;28.07;;;;;;;;;;5093044;28;20030;-68
2022/03/21 06:49:57;;;;;;;54.90;27.17;;;;;;;;;;5093048;28;20024;-65
2022/03/21 06:52:23;;;;;;;60.23;29.60;;;;;;;;;;5092986;28;20093;-66
2022/03/21 06:54:50;;;;;;;57.23;28.97;;;;;;;;;;5074949;28;20024;-66
2022/03/21 06:57:17;;;;;;;51.97;25.70;;;;;;;;;;5093107;28;20063;-66
2022/03/21 06:59:45;;;;;;;55.20;27.93;;;;;;;;;;5093029;28;20070;-65
2022/03/21 07:02:11;;;;;;;53.00;27.63;;;;;;;;;;5092936;28;20054;-65
2022/03/21 07:04:37;;;;;;;53.20;25.63;;;;;;;;;;5093108;28;20051;-65
2022/03/21 07:07:04;;;;;;;53.20;26.97;;;;;;;;;;5092542;28;20031;-65
2022/03/21 07:09:30;;;;;;;56.10;27.90;;;;;;;;;;5092470;28;20460;-65
2022/03/21 07:11:56;;;;;;;52.73;27.00;;;;;;;;;;5092698;28;20140;-65
2022/03/21 07:14:22;;;;;;;48.90;25.03;;;;;;;;;;5092991;28;20178;-65
2022/03/21 07:16:49;;;;;;;50.15;24.95;;;;;;;;;;5092921;28;20028;-65
2022/03/21 07:19:15;;;;;;;49.53;24.90;;;;;;;;;;5092919;28;20028;-66
2022/03/21 07:21:42;;;;;;;42.67;22.70;;;;;;;;;;5074625;28;20028;-65
2022/03/21 07:24:08;;;;;;;50.42;25.00;;;;;;;;;;5074746;28;20472;-65
2022/03/21 07:26:34;;;;;;;46.73;25.63;;;;;;;;;;5092866;28;20024;-65
2022/03/21 07:29:01;;;;;;;45.60;25.05;;;;;;;;;;5092928;28;20228;-65
2022/03/21 07:31:27;;;;;;;45.85;25.50;;;;;;;;;;5074763;28;20031;-67
2022/03/21 07:33:54;;;;;;;46.95;24.80;;;;;;;;;;5092843;28;20020;-66
2022/03/21 07:36:20;;;;;;;54.42;25.33;;;;;;;;;;5068850;28;20440;-65
2022/03/21 07:38:46;;;;;;;46.67;23.73;;;;;;;;;;5070944;28;20029;-66
2022/03/21 07:41:12;;;;;;;51.83;25.60;;;;;;;;;;5072253;28;20033;-68
2022/03/21 07:43:38;;;;;;;47.13;24.02;;;;;;;;;;5070527;28;20063;-67
2022/03/21 07:48:51;;;;;;;41.38;21.38;;;;;;;;;;5072441;28;20039;-68
2022/03/21 07:51:18;;;;;;;43.75;22.73;;;;;;;;;;5072179;28;20028;-69
2022/03/21 07:53:44;;;;;;;48.20;24.42;;;;;;;;;;5072300;28;20036;-68
2022/03/21 07:56:10;;;;;;;52.65;25.40;;;;;;;;;;5072258;28;20359;-68
2022/03/21 07:58:37;;;;;;;52.65;24.90;;;;;;;;;;5074351;28;20031;-67
2022/03/21 08:01:03;;;;;;;40.20;22.45;;;;;;;;;;5074599;28;20029;-67
2022/03/21 08:03:30;;;;;;;38.65;21.38;;;;;;;;;;5075821;28;20536;-68
2022/03/21 08:05:59;;;;;;;40.10;21.77;;;;;;;;;;5075873;28;20025;-68
2022/03/21 08:08:29;;;;;;;41.47;21.52;;;;;;;;;;5075573;28;20039;-70
2022/03/21 08:10:56;;;;;;;39.08;21.15;;;;;;;;;;5074387;28;20086;-69
2022/03/21 08:13:24;;;;;;;39.38;21.35;;;;;;;;;;5075596;28;20039;-69
2022/03/21 08:15:50;;;;;;;41.88;21.20;;;;;;;;;;5074838;28;20028;-69
2022/03/21 08:18:17;;;;;;;39.90;21.75;;;;;;;;;;5095383;28;20036;-68
2022/03/21 08:20:43;;;;;;;37.75;19.10;;;;;;;;;;5096101;28;20111;-71
2022/03/21 08:23:14;;;;;;;35.95;19.45;;;;;;;;;;5077289;28;20376;-72
2022/03/21 08:25:41;;;;;;;29.30;18.83;;;;;;;;;;5095918;28;20028;-66
2022/03/21 08:28:08;;;;;;;33.63;17.33;;;;;;;;;;5095831;28;20492;-67
2022/03/21 08:30:35;;;;;;;29.92;18.52;;;;;;;;;;5077839;28;20392;-69
2022/03/21 08:33:02;;;;;;;32.72;17.50;;;;;;;;;;5077533;28;20106;-69
2022/03/21 08:35:31;;;;;;;30.42;16.98;;;;;;;;;;5095701;28;20039;-68
2022/03/21 08:37:58;;;;;;;31.52;16.02;;;;;;;;;;5095304;28;20028;-66
2022/03/21 08:40:24;;;;;;;31.50;15.45;;;;;;;;;;5095185;28;20523;-69
2022/03/21 08:42:50;;;;;;;28.23;13.48;;;;;;;;;;5094856;28;20028;-70
2022/03/21 08:45:16;;;;;;;24.15;14.18;;;;;;;;;;5095717;28;20028;-70
2022/03/21 08:47:43;;;;;;;26.75;14.45;;;;;;;;;;5095377;28;20035;-67
2022/03/21 08:50:10;;;;;;;26.58;14.40;;;;;;;;;;5095418;28;20028;-65
2022/03/21 08:52:37;;;;;;;26.50;15.13;;;;;;;;;;5077061;28;20039;-66
2022/03/21 08:55:06;;;;;;;30.63;15.52;;;;;;;;;;5076842;28;20040;-64
2022/03/21 08:57:32;;;;;;;24.67;14.48;;;;;;;;;;5095388;28;20447;-67
2022/03/21 08:59:59;;;;;;;22.90;14.43;;;;;;;;;;5076947;28;20028;-67
2022/03/21 09:02:26;;;;;;;33.08;19.17;;;;;;;;;;5076755;28;20133;-68
2022/03/21 09:04:53;;;;;;;29.00;18.25;;;;;;;;;;5076859;28;20051;-66
2022/03/21 09:07:19;;;;;;;27.52;16.27;;;;;;;;;;5094773;28;20027;-66
2022/03/21 09:09:45;;;;;;;32.65;16.75;;;;;;;;;;5094223;28;20038;-69
2022/03/21 09:12:12;;;;;;;34.33;17.30;;;;;;;;;;5095282;28;20042;-67
2022/03/21 09:14:38;;;;;;;33.40;18.33;;;;;;;;;;5095021;28;20020;-67
2022/03/21 09:17:05;;;;;;;28.60;17.10;;;;;;;;;;5095180;28;20043;-67
2022/03/21 09:19:31;;;;;;;34.03;19.67;;;;;;;;;;5094856;28;20119;-67
2022/03/21 09:21:58;;;;;;;31.98;17.85;;;;;;;;;;5076506;28;20122;-67
2022/03/21 09:24:25;;;;;;;32.20;16.65;;;;;;;;;;5094801;28;20031;-66
2022/03/21 09:26:51;;;;;;;28.30;16.70;;;;;;;;;;5094664;28;20032;-68
2022/03/21 09:29:17;;;;;;;29.45;18.50;;;;;;;;;;5094622;28;20103;-66
2022/03/21 09:31:43;;;;;;;27.95;16.35;;;;;;;;;;5094212;28;20361;-67
2022/03/21 09:34:11;;;;;;;28.25;17.67;;;;;;;;;;5094535;28;20027;-65
2022/03/21 09:36:38;;;;;;;30.45;17.10;;;;;;;;;;5076558;28;20364;-66
2022/03/21 09:39:05;;;;;;;29.67;16.42;;;;;;;;;;5094470;28;20017;-67
2022/03/21 09:41:32;;;;;;;22.60;14.80;;;;;;;;;;5076139;28;20047;-68
2022/03/21 09:44:00;;;;;;;23.52;15.27;;;;;;;;;;5093758;28;20405;-69
2022/03/21 09:46:27;;;;;;;26.02;15.57;;;;;;;;;;5075752;28;20349;-66
2022/03/21 09:48:54;;;;;;;24.58;13.43;;;;;;;;;;5093745;28;20066;-67
2022/03/21 09:51:25;;;;;;;24.85;13.63;;;;;;;;;;5094367;28;20115;-67
2022/03/21 09:53:52;;;;;;;22.02;14.80;;;;;;;;;;5093657;28;20111;-67
2022/03/21 09:56:19;;;;;;;22.77;13.50;;;;;;;;;;5093496;28;20080;-68
2022/03/21 09:58:45;;;;;;;22.67;13.20;;;;;;;;;;5075830;28;20066;-67
2022/03/21 10:01:15;;;;;;;20.48;13.77;;;;;;;;;;5093924;28;20415;-67
2022/03/21 10:03:44;;;;;;;25.23;14.20;;;;;;;;;;5094100;28;20024;-68
2022/03/21 10:06:29;;;;;;;24.75;14.10;;;14.40;49.40;;;;;;5094006;28;20023;-67
2022/03/21 10:09:12;;;;;;;22.80;13.32;;;14.30;49.10;;;;;;5093846;28;20066;-68
2022/03/21 10:11:46;;;;;;;22.80;13.48;;;14.30;51.30;;;;;;5093849;28;20026;-67
2022/03/21 10:14:29;;;;;;;21.08;13.50;;;14.40;49.30;;;;;;5075570;28;20038;-66
2022/03/21 10:16:57;;;;;;;25.00;13.95;;;14.90;61.80;;;;;;5092699;28;20024;-67
2022/03/21 10:19:23;;;;;;;21.77;13.50;;;15.10;50.30;;;;;;5075071;28;20123;-69
2022/03/21 10:22:08;;;;;;;21.63;12.90;;;15.40;46.90;;;;;;5075265;28;20072;-69
2022/03/21 10:24:35;;;;;;;21.35;12.23;;;;;;;;;;5093546;28;20448;-67
2022/03/21 10:27:01;;;;;;;22.95;12.15;;;15.70;45.60;;;;;;5075341;28;20043;-67
2022/03/21 10:29:27;;;;;;;35.22;12.13;;;;;;;;;;5093158;28;20460;-66
2022/03/21 10:31:53;;;;;;;17.63;9.15;;;16.00;46.70;;;;;;5075300;28;20083;-67
2022/03/21 10:34:23;;;;;;;15.85;9.25;;;16.90;45.10;;;;;;5075108;28;20373;-67
2022/03/21 10:37:08;;;;;;;13.95;9.38;;;17.40;43.00;;;;;;5093419;28;20464;-67
2022/03/21 10:39:35;;;;;;;29.50;11.90;;;17.80;42.20;;;;;;5075077;28;20111;-68
2022/03/21 10:42:04;;;;;;;15.10;11.27;;;18.70;41.40;;;;;;5075002;28;20064;-67
2022/03/21 10:44:32;;;;;;;15.63;10.52;;;18.00;39.90;;;;;;5073151;28;20054;-66
2022/03/21 10:47:00;;;;;;;16.95;11.30;;;18.30;41.80;;;;;;5091733;28;20026;-67
2022/03/21 10:49:46;;;;;;;18.45;11.57;;;18.50;39.70;;;;;;5093136;28;20028;-67
2022/03/21 10:52:17;;;;;;;32.22;13.15;;;19.70;38.70;;;;;;5093162;28;20087;-69
2022/03/21 10:54:51;;;;;;;26.83;14.87;;;20.30;39.70;;;;;;5093084;28;20028;-67
2022/03/21 10:57:33;;;;;;;33.03;14.77;;;20.60;39.70;;;;;;5091158;28;20024;-68
2022/03/21 11:00:22;;;;;;;20.38;12.25;;;20.70;40.00;;;;;;5092753;28;20031;-68
2022/03/21 11:02:55;;;;;;;18.05;12.13;;;22.00;39.20;;;;;;5092781;28;20039;-72
2022/03/21 11:05:23;;;;;;;22.98;12.80;;;22.20;36.60;;;;;;5092889;28;20153;-68
2022/03/21 11:07:49;;;;;;;19.52;12.77;;;22.80;37.40;;;;;;5092732;28;20024;-71
2022/03/21 11:10:16;;;;;;;20.05;11.57;;;23.20;34.00;;;;;;5092782;28;20047;-72
2022/03/21 11:12:43;;;;;;;21.10;12.48;;;24.00;36.00;;;;;;5092827;28;20043;-71
2022/03/21 11:15:13;;;;;;;22.55;13.77;;;23.40;34.50;;;;;;5093087;28;20517;-68
2022/03/21 11:17:41;;;;;;;28.45;13.85;;;22.90;34.50;;;;;;5074611;28;20502;-70
2022/03/21 11:20:08;;;;;;;16.83;12.38;;;22.00;34.70;;;;;;5092649;28;20020;-69
2022/03/21 11:22:36;;;;;;;18.00;12.93;;;21.50;35.50;;;;;;5092649;28;20044;-68
2022/03/21 11:25:09;;;;;;;19.20;12.25;;;23.00;34.10;;;;;;5092726;28;20027;-68
2022/03/21 11:27:37;;;;;;;21.60;13.50;;;23.50;32.80;;;;;;5093060;28;20422;-66
2022/03/21 11:30:21;;;;;;;18.05;11.68;;;23.80;33.30;;;;;;5073522;28;20043;-64
2022/03/21 11:33:24;;;;;;;28.50;13.95;;;24.60;32.40;;;;;;5095046;28;20054;-65
2022/03/21 11:35:58;;;;;;;24.98;12.88;;;26.20;32.40;;;;;;5096370;28;20028;-66
2022/03/21 11:38:30;;;;;;;16.05;11.45;;;27.00;32.50;;;;;;5096474;28;20063;-67
2022/03/21 11:41:21;;;;;;;17.05;11.90;;;27.80;30.50;;;;;;5078507;28;20060;-68
2022/03/21 11:44:07;;;;;;;17.73;10.90;;;28.50;32.00;;;;;;5096230;28;20044;-68
2022/03/21 11:46:40;;;;;;;88.82;15.18;;;28.10;30.30;;;;;;5077200;28;20064;-64
2022/03/21 11:49:27;;;;;;;32.58;12.15;;;27.50;31.00;;;;;;5096376;28;20024;-65
2022/03/21 11:51:57;;;;;;;16.33;10.80;;;28.20;30.60;;;;;;5095965;28;20028;-69
2022/03/21 11:54:34;;;;;;;15.32;9.48;;;25.80;28.10;;;;;;5096501;28;20035;-69
2022/03/21 11:57:27;;;;;;;14.70;10.00;;;25.40;28.90;;;;;;5096479;28;20074;-69
2022/03/21 11:59:54;;;;;;;15.82;10.57;;;;;;;;;;5085551;28;20054;-66
2022/03/21 12:02:22;;;;;;;16.65;11.43;;;26.80;29.60;;;;;;5077716;28;20028;-68
2022/03/21 12:05:06;;;;;;;15.27;10.35;;;26.20;29.60;;;;;;5096145;28;20028;-69
2022/03/21 12:07:33;;;;;;;12.98;10.90;;;25.50;28.70;;;;;;5096201;28;20032;-67
2022/03/21 12:09:59;;;;;;;13.80;10.40;;;25.10;30.50;;;;;;5095992;28;20099;-69
2022/03/21 12:12:40;;;;;;;16.30;10.60;;;24.60;29.60;;;;;;5095953;28;20050;-69
2022/03/21 12:15:33;;;;;;;15.60;10.57;;;26.30;29.00;;;;;;5096200;28;20031;-68
2022/03/21 12:17:59;;;;;;;22.40;10.88;;;26.50;29.80;;;;;;5077539;28;20118;-67
2022/03/21 12:20:25;;;;;;;20.45;10.80;;;27.30;34.80;;;;;;5077622;28;20123;-68
2022/03/21 12:23:00;;;;;;;19.02;10.50;;;27.80;28.40;;;;;;5095504;28;20065;-68
2022/03/21 12:25:29;;;;;;;17.77;10.93;;;28.60;29.00;;;;;;5095367;28;20077;-67
2022/03/21 12:27:56;;;;;;;16.00;11.30;;;;;;;;;;5095605;28;20130;-69
2022/03/21 12:30:27;;;;;;;14.23;10.90;;;30.50;36.20;;;;;;5077493;28;20024;-69
2022/03/21 12:32:55;;;;;;;12.50;9.88;;;30.40;27.50;;;;;;5095619;28;20055;-66
2022/03/21 12:35:51;;;;;;;20.17;11.23;;;29.50;28.10;;;;;;5095533;28;20031;-69
2022/03/21 12:38:24;;;;;;;22.33;10.73;;;;;;;;;;5095255;28;20028;-66
2022/03/21 12:41:00;;;;;;;14.13;10.70;;;26.10;28.80;;;;;;5095786;28;20024;-70
2022/03/21 12:43:40;;;;;;;13.68;10.07;;;28.00;28.80;;;;;;5075721;28;20062;-66
2022/03/21 12:46:06;;;;;;;19.98;10.82;;;29.20;28.70;;;;;;5095602;28;20033;-69
2022/03/21 12:48:34;;;;;;;14.40;10.20;;;30.20;28.40;;;;;;5076934;28;20051;-70
2022/03/21 12:51:00;;;;;;;15.43;10.63;;;30.00;27.50;;;;;;5095433;28;20024;-71
2022/03/21 12:53:39;;;;;;;17.35;10.35;;;29.80;28.00;;;;;;5095169;28;20492;-70
2022/03/21 12:56:10;;;;;;;23.05;11.35;;;29.50;28.70;;;;;;5076926;28;20310;-72
2022/03/21 12:58:40;;;;;;;12.45;9.95;;;29.70;28.80;;;;;;5095167;28;20088;-71
2022/03/21 13:01:06;;;;;;;16.50;9.32;;;29.90;28.50;;;;;;5094925;28;20453;-68
2022/03/21 13:03:32;;;;;;;13.48;9.85;;;30.30;28.80;;;;;;5094999;28;20035;-69
2022/03/21 13:11:46;;;;;;;12.57;8.87;;;29.00;28.00;;;;;;5094957;28;20124;-67
2022/03/21 13:14:17;;;;;;;15.30;9.85;;;28.50;28.30;;;;;;5094839;28;20024;-67
2022/03/21 13:16:59;;;;;;;12.85;9.65;;;29.30;28.20;;;;;;5094794;28;20116;-68
2022/03/21 13:19:27;;;;;;;16.98;9.77;;;30.40;40.00;;;;;;5076442;28;20070;-66
2022/03/21 13:22:08;;;;;;;17.38;9.48;;;30.50;41.30;;;;;;5076035;28;20411;-70
2022/03/21 13:24:44;;;;;;;12.40;9.43;;;31.10;46.60;;;;;;5094687;28;20059;-71
2022/03/21 13:27:14;;;;;;;12.45;9.20;;;30.70;27.60;;;;;;5094576;28;20028;-66
2022/03/21 13:29:50;;;;;;;12.02;9.45;;;31.20;28.60;;;;;;5076408;28;20024;-67
2022/03/21 13:32:17;;;;;;;10.25;8.32;;;31.30;27.40;;;;;;5094555;28;20105;-70
2022/03/21 13:34:51;;;;;;;11.63;8.90;;;31.70;27.20;;;;;;5094207;28;20028;-67
2022/03/21 13:37:21;;;;;;;12.57;9.40;;;31.90;27.20;;;;;;5094427;28;20111;-68
2022/03/21 13:40:07;;;;;;;12.82;8.57;;;31.60;27.70;;;;;;5094350;28;20415;-69
2022/03/21 13:42:34;;;;;;;30.83;10.50;;;31.60;27.90;;;;;;5094167;28;20119;-69
2022/03/21 13:45:05;;;;;;;10.13;8.20;;;31.70;28.30;;;;;;5075401;28;20101;-65
2022/03/21 13:47:53;;;;;;;10.00;8.18;;;31.90;27.70;;;;;;5094341;28;20089;-65
2022/03/21 13:50:29;;;;;;;11.52;8.75;;;31.90;28.40;;;;;;5094285;28;20020;-65
2022/03/21 13:52:58;;;;;;;11.18;8.70;;;32.20;28.30;;;;;;5094247;28;20059;-66
2022/03/21 13:55:27;;;;;;;10.55;8.88;;;32.30;28.60;;;;;;5093870;28;20028;-65
2022/03/21 13:57:59;;;;;;;13.70;8.90;;;30.40;26.80;;;;;;5075937;28;20028;-65
2022/03/21 14:00:28;;;;;;;14.98;9.40;;;30.70;27.70;;;;;;5093839;28;20050;-65
2022/03/21 14:02:56;;;;;;;13.52;8.95;;;31.00;32.50;;;;;;5093759;28;20040;-67
2022/03/21 14:05:27;;;;;;;12.35;8.85;;;31.60;31.50;;;;;;5093896;28;20055;-65
2022/03/21 14:08:10;;;;;;;13.82;8.68;;;31.50;28.80;;;;;;5093803;28;20020;-65
2022/03/21 14:10:44;;;;;;;10.90;8.98;;;31.30;27.50;;;;;;5093654;28;20024;-67
2022/03/21 14:13:14;;;;;;;11.40;8.60;;;30.30;27.20;;;;;;5093846;28;20490;-65
2022/03/21 14:15:41;;;;;;;12.93;8.47;;;29.50;27.90;;;;;;5093691;28;20133;-65